createdAt,value
2023-02-07T00:01:35.020Z,21.77
2023-02-07T00:04:02.868Z,23.42
2023-02-07T00:06:34.898Z,23.25
2023-02-07T00:09:07.249Z,26.65
2023-02-07T00:11:37.075Z,29.02
2023-02-07T00:14:05.165Z,23.90
2023-02-07T00:16:33.001Z,29.55
2023-02-07T00:19:01.036Z,26.10
2023-02-07T00:21:29.101Z,27.92
2023-02-07T00:23:57.580Z,25.42
2023-02-07T00:26:27.140Z,26.45
2023-02-07T00:28:56.186Z,32.03
2023-02-07T00:31:33.282Z,23.75
2023-02-07T00:34:05.674Z,28.67
2023-02-07T00:36:36.865Z,22.27
2023-02-07T00:39:15.151Z,28.73
2023-02-07T00:41:44.860Z,28.38
2023-02-07T00:44:12.978Z,29.55
2023-02-07T00:46:41.012Z,33.67
2023-02-07T00:49:14.713Z,39.20
2023-02-07T00:51:45.859Z,31.15
2023-02-07T00:54:14.606Z,27.90
2023-02-07T00:56:42.390Z,29.98
2023-02-07T00:59:10.147Z,23.55
2023-02-07T01:01:40.216Z,31.13
2023-02-07T01:04:07.972Z,26.33
2023-02-07T01:06:37.160Z,28.83
2023-02-07T01:09:06.882Z,21.83
2023-02-07T01:11:34.596Z,26.52
2023-02-07T01:14:03.397Z,23.92
2023-02-07T01:16:40.454Z,30.38
2023-02-07T01:19:10.997Z,27.05
2023-02-07T01:21:40.513Z,25.65
2023-02-07T01:24:09.510Z,23.75
2023-02-07T01:26:44.557Z,23.83
2023-02-07T01:29:15.667Z,23.38
2023-02-07T01:31:43.803Z,29.58
2023-02-07T01:34:13.453Z,23.35
2023-02-07T01:36:41.282Z,20.00
2023-02-07T01:39:09.952Z,24.95
2023-02-07T01:41:37.980Z,22.90
2023-02-07T01:44:28.737Z,18.92
2023-02-07T01:46:57.362Z,18.33
2023-02-07T01:49:30.528Z,16.52
2023-02-07T01:52:08.470Z,20.98
2023-02-07T01:54:37.896Z,16.52
2023-02-07T01:57:09.007Z,13.60
2023-02-07T01:59:40.964Z,21.05
2023-02-07T02:02:08.673Z,16.63
2023-02-07T02:04:36.395Z,13.68
2023-02-07T02:07:06.981Z,17.38
2023-02-07T02:09:36.333Z,17.40
2023-02-07T02:12:25.399Z,16.42
2023-02-07T02:15:11.412Z,16.73
2023-02-07T02:20:45.213Z,22.30
2023-02-07T02:23:20.820Z,16.00
2023-02-07T02:28:43.484Z,19.75
2023-02-07T02:32:01.830Z,18.60
2023-02-07T02:35:13.739Z,22.05
2023-02-07T02:38:13.248Z,16.23
2023-02-07T02:40:56.986Z,17.92
2023-02-07T02:43:31.874Z,18.83
2023-02-07T02:46:07.617Z,19.02
2023-02-07T02:48:36.400Z,18.17
2023-02-07T02:51:05.153Z,19.42
2023-02-07T02:53:33.065Z,24.10
2023-02-07T02:56:22.322Z,16.02
2023-02-07T02:59:37.796Z,17.33
2023-02-07T03:02:45.584Z,15.75
2023-02-07T03:05:43.649Z,16.38
2023-02-07T03:08:21.485Z,14.43
2023-02-07T03:11:10.306Z,22.58
2023-02-07T03:14:00.357Z,21.67
2023-02-07T03:17:06.390Z,16.58
2023-02-07T03:20:18.162Z,16.03
2023-02-07T03:22:47.623Z,19.00
2023-02-07T03:25:17.689Z,16.10
2023-02-07T03:27:47.925Z,21.17
2023-02-07T03:30:19.478Z,19.83
2023-02-07T03:32:56.735Z,18.45
2023-02-07T03:36:06.151Z,19.10
2023-02-07T03:38:35.035Z,19.83
2023-02-07T03:41:26.961Z,15.63
2023-02-07T03:43:55.927Z,16.67
2023-02-07T03:46:23.754Z,17.42
2023-02-07T03:48:51.459Z,13.98
2023-02-07T03:51:19.111Z,15.40
2023-02-07T03:53:46.738Z,13.13
2023-02-07T03:56:14.396Z,11.52
2023-02-07T03:58:42.067Z,12.35
2023-02-07T04:01:09.843Z,12.68
2023-02-07T04:03:37.578Z,17.55
2023-02-07T04:06:05.834Z,19.17
2023-02-07T04:08:33.593Z,14.80
2023-02-07T04:11:03.556Z,17.10
2023-02-07T04:13:31.440Z,15.98
2023-02-07T04:15:59.420Z,16.17
2023-02-07T04:18:27.264Z,24.15
2023-02-07T04:21:07.245Z,20.83
2023-02-07T04:23:36.274Z,15.13
2023-02-07T04:26:04.185Z,15.80
2023-02-07T04:28:32.048Z,14.68
2023-02-07T04:30:59.822Z,14.00
2023-02-07T04:33:27.525Z,15.45
2023-02-07T04:36:01.719Z,18.30
2023-02-07T04:38:29.928Z,18.27
2023-02-07T04:41:04.358Z,14.98
2023-02-07T04:43:35.370Z,23.75
2023-02-07T04:46:04.637Z,18.77
2023-02-07T04:48:33.725Z,14.38
2023-02-07T04:51:01.376Z,14.70
2023-02-07T04:53:29.101Z,13.30
2023-02-07T04:55:56.784Z,16.50
2023-02-07T04:58:24.689Z,13.85
2023-02-07T05:00:53.999Z,11.10
2023-02-07T05:03:21.840Z,16.08
2023-02-07T05:05:49.788Z,13.48
2023-02-07T05:08:17.546Z,13.77
2023-02-07T05:10:46.053Z,13.25
2023-02-07T05:13:13.720Z,13.15
2023-02-07T05:15:41.371Z,13.70
2023-02-07T05:18:09.205Z,14.10
2023-02-07T05:20:36.928Z,11.13
2023-02-07T05:23:04.666Z,15.00
2023-02-07T05:25:32.331Z,12.48
2023-02-07T05:28:00.153Z,19.10
2023-02-07T05:30:27.905Z,12.77
2023-02-07T05:33:04.790Z,11.77
2023-02-07T05:35:40.714Z,15.52
2023-02-07T05:38:13.515Z,17.98
2023-02-07T05:40:44.046Z,12.85
2023-02-07T05:43:15.434Z,19.60
2023-02-07T05:45:43.214Z,15.02
2023-02-07T05:48:11.417Z,16.65
2023-02-07T05:50:39.317Z,18.58
2023-02-07T05:53:09.142Z,28.75
2023-02-07T05:55:37.722Z,25.98
2023-02-07T05:58:05.878Z,20.30
2023-02-07T06:00:33.582Z,24.13
2023-02-07T06:03:04.367Z,21.38
2023-02-07T06:05:33.237Z,22.80
2023-02-07T06:08:01.368Z,20.77
2023-02-07T06:10:29.216Z,19.80
2023-02-07T06:12:57.017Z,17.45
2023-02-07T06:15:24.868Z,18.77
2023-02-07T06:17:52.562Z,19.02
2023-02-07T06:20:20.479Z,18.67
2023-02-07T06:22:48.371Z,23.13
2023-02-07T06:25:16.112Z,22.20
2023-02-07T06:27:43.769Z,20.67
2023-02-07T06:30:12.526Z,19.35
2023-02-07T06:32:40.849Z,31.45
2023-02-07T06:35:09.176Z,33.33
2023-02-07T06:37:36.848Z,23.08
2023-02-07T06:40:05.392Z,17.92
2023-02-07T06:42:33.425Z,18.95
2023-02-07T06:45:01.200Z,17.20
2023-02-07T06:47:28.816Z,19.30
2023-02-07T06:49:56.462Z,18.73
2023-02-07T06:52:24.128Z,22.08
2023-02-07T06:54:51.881Z,21.95
2023-02-07T06:57:19.539Z,20.23
2023-02-07T06:59:47.175Z,16.65
2023-02-07T07:02:15.263Z,27.20
2023-02-07T07:04:42.954Z,27.25
2023-02-07T07:07:10.762Z,28.85
2023-02-07T07:09:38.427Z,31.92
2023-02-07T07:12:06.425Z,25.25
2023-02-07T07:14:34.393Z,22.30
2023-02-07T07:17:02.012Z,19.83
2023-02-07T07:19:30.224Z,22.90
2023-02-07T07:21:59.107Z,19.23
2023-02-07T07:24:27.484Z,20.35
2023-02-07T07:26:56.594Z,22.65
2023-02-07T07:29:24.409Z,23.48
2023-02-07T07:31:52.150Z,25.35
2023-02-07T07:34:20.142Z,29.52
2023-02-07T07:36:49.382Z,20.13
2023-02-07T07:39:17.199Z,33.90
2023-02-07T07:41:44.914Z,25.13
2023-02-07T07:44:19.361Z,25.58
2023-02-07T07:46:47.175Z,34.65
2023-02-07T07:49:15.019Z,28.65
2023-02-07T07:51:42.814Z,37.38
2023-02-07T07:54:10.592Z,29.67
2023-02-07T07:56:38.392Z,28.40
2023-02-07T07:59:12.195Z,30.75
2023-02-07T08:01:47.931Z,29.50
2023-02-07T08:04:15.640Z,29.17
2023-02-07T08:06:43.324Z,27.83
2023-02-07T08:09:11.759Z,28.10
2023-02-07T08:11:39.748Z,24.20
2023-02-07T08:14:07.654Z,25.65
2023-02-07T08:16:35.431Z,25.23
2023-02-07T08:19:04.206Z,31.52
2023-02-07T08:21:32.502Z,32.53
2023-02-07T08:24:00.170Z,30.17
2023-02-07T08:26:27.929Z,32.13
2023-02-07T08:28:55.593Z,30.67
2023-02-07T08:31:23.596Z,32.00
2023-02-07T08:33:51.898Z,32.75
2023-02-07T08:36:19.616Z,36.38
2023-02-07T08:38:47.399Z,34.92
2023-02-07T08:41:15.146Z,34.28
2023-02-07T08:43:42.912Z,29.65
2023-02-07T08:46:10.813Z,43.13
2023-02-07T08:48:38.560Z,42.13
2023-02-07T08:51:10.439Z,46.70
2023-02-07T08:53:38.251Z,66.07
2023-02-07T08:56:06.498Z,184.55
2023-02-07T08:58:34.243Z,51.28
2023-02-07T09:01:02.026Z,59.13
2023-02-07T09:03:29.760Z,74.32
2023-02-07T09:05:59.333Z,60.08
2023-02-07T09:08:27.136Z,54.33
2023-02-07T09:10:54.960Z,54.97
2023-02-07T09:13:22.900Z,56.70
2023-02-07T09:15:56.637Z,55.95
2023-02-07T09:18:25.838Z,57.25
2023-02-07T09:20:53.934Z,110.28
2023-02-07T09:23:21.684Z,76.22
2023-02-07T09:25:53.196Z,65.82
2023-02-07T09:28:22.574Z,59.33
2023-02-07T09:30:50.876Z,72.70
2023-02-07T09:33:18.816Z,102.20
2023-02-07T09:35:47.429Z,50.38
2023-02-07T09:38:22.293Z,49.05
2023-02-07T09:40:52.542Z,88.47
2023-02-07T09:43:56.613Z,159.68
2023-02-07T09:46:39.154Z,62.17
2023-02-07T09:49:31.554Z,59.28
2023-02-07T09:52:01.056Z,43.78
2023-02-07T09:54:42.722Z,43.28
2023-02-07T09:57:23.625Z,55.75
2023-02-07T10:00:05.212Z,51.15
2023-02-07T10:03:04.059Z,62.95
2023-02-07T10:05:46.135Z,52.25
2023-02-07T10:08:16.883Z,55.95
2023-02-07T10:11:43.110Z,71.70
2023-02-07T10:14:33.639Z,59.92
2023-02-07T10:17:25.720Z,49.03
2023-02-07T10:20:25.050Z,52.40
2023-02-07T10:22:58.781Z,85.50
2023-02-07T10:25:53.966Z,55.05
2023-02-07T10:29:18.138Z,55.85
2023-02-07T10:31:54.319Z,47.70
2023-02-07T10:34:25.655Z,47.25
2023-02-07T10:36:57.301Z,51.10
2023-02-07T10:39:39.020Z,51.35
2023-02-07T10:42:15.652Z,42.85
2023-02-07T10:44:43.868Z,44.20
2023-02-07T10:47:18.138Z,73.07
2023-02-07T10:49:50.115Z,57.50
2023-02-07T10:52:31.623Z,47.72
2023-02-07T10:55:02.690Z,59.47
2023-02-07T10:57:31.439Z,44.47
2023-02-07T11:00:23.839Z,51.00
2023-02-07T11:03:15.237Z,45.78
2023-02-07T11:06:04.693Z,49.65
2023-02-07T11:08:34.978Z,46.38
2023-02-07T11:11:27.397Z,43.90
2023-02-07T11:13:55.607Z,40.42
2023-02-07T11:16:25.155Z,41.72
2023-02-07T11:19:07.346Z,43.67
2023-02-07T11:21:41.634Z,48.25
2023-02-07T11:24:19.356Z,50.53
2023-02-07T11:27:06.174Z,55.33
2023-02-07T11:29:56.635Z,63.08
2023-02-07T11:32:27.681Z,66.15
2023-02-07T11:35:05.805Z,65.22
2023-02-07T11:37:43.569Z,89.15
2023-02-07T11:40:17.301Z,82.00
2023-02-07T11:42:48.838Z,75.95
2023-02-07T11:45:21.998Z,62.35
2023-02-07T11:47:54.303Z,78.50
2023-02-07T11:50:43.419Z,88.50
2023-02-07T11:53:36.312Z,86.18
2023-02-07T11:56:05.019Z,73.72
2023-02-07T11:58:49.216Z,85.00
2023-02-07T12:01:23.898Z,76.03
2023-02-07T12:04:01.167Z,79.77
2023-02-07T12:06:54.878Z,92.22
2023-02-07T12:09:53.303Z,82.28
2023-02-07T12:12:40.866Z,80.80
2023-02-07T12:15:23.556Z,71.50
2023-02-07T12:18:07.681Z,65.50
2023-02-07T12:20:57.065Z,67.32
2023-02-07T12:23:52.607Z,60.25
2023-02-07T12:26:27.379Z,54.23
2023-02-07T12:29:36.628Z,53.53
2023-02-07T12:32:47.353Z,50.00
2023-02-07T12:35:43.153Z,45.22
2023-02-07T12:38:23.670Z,38.08
2023-02-07T12:41:15.004Z,40.88
2023-02-07T12:43:56.110Z,46.35
2023-02-07T12:46:38.324Z,42.50
2023-02-07T12:49:41.135Z,44.67
2023-02-07T12:52:39.886Z,42.25
2023-02-07T12:55:27.049Z,33.83
2023-02-07T12:58:22.768Z,32.90
2023-02-07T13:00:57.897Z,35.38
2023-02-07T13:03:51.758Z,31.90
2023-02-07T13:07:02.671Z,33.38
2023-02-07T13:09:36.169Z,33.40
2023-02-07T13:12:33.063Z,35.28
2023-02-07T13:15:06.881Z,30.95
2023-02-07T13:18:05.702Z,36.63
2023-02-07T13:20:42.112Z,41.00
2023-02-07T13:23:27.017Z,41.10
2023-02-07T13:26:06.659Z,42.05
2023-02-07T13:28:49.160Z,38.13
2023-02-07T13:31:43.023Z,34.03
2023-02-07T13:34:27.645Z,38.78
2023-02-07T13:36:58.955Z,34.28
2023-02-07T13:39:37.637Z,35.03
2023-02-07T13:42:29.549Z,42.67
2023-02-07T13:45:11.966Z,32.28
2023-02-07T13:47:51.558Z,36.80
2023-02-07T13:50:56.115Z,37.67
2023-02-07T13:53:44.030Z,36.50
2023-02-07T13:56:34.237Z,30.92
2023-02-07T13:59:28.510Z,31.13
2023-02-07T14:02:00.674Z,19.90
2023-02-07T14:05:10.479Z,19.20
2023-02-07T14:07:41.345Z,18.75
2023-02-07T14:10:39.356Z,18.70
2023-02-07T14:13:20.664Z,20.52
2023-02-07T14:15:48.703Z,19.25
2023-02-07T14:18:49.407Z,19.00
2023-02-07T14:21:20.232Z,18.60
2023-02-07T14:24:15.474Z,19.02
2023-02-07T14:26:48.547Z,19.58
2023-02-07T14:29:25.425Z,23.45
2023-02-07T14:32:28.607Z,22.85
2023-02-07T14:35:17.790Z,27.38
2023-02-07T14:37:59.178Z,28.77
2023-02-07T14:40:35.380Z,30.35
2023-02-07T14:43:21.429Z,31.08
2023-02-07T14:48:44.351Z,36.63
2023-02-07T14:51:29.276Z,34.75
2023-02-07T14:54:19.436Z,33.88
2023-02-07T14:57:03.329Z,29.15
2023-02-07T14:59:45.024Z,35.08
2023-02-07T15:02:41.607Z,33.67
2023-02-07T15:05:32.954Z,41.90
2023-02-07T15:08:03.341Z,37.17
2023-02-07T15:10:55.011Z,31.30
2023-02-07T15:13:38.343Z,33.92
2023-02-07T15:16:40.582Z,35.03
2023-02-07T15:19:36.425Z,30.40
2023-02-07T15:22:23.939Z,32.85
2023-02-07T15:24:57.874Z,37.55
2023-02-07T15:27:29.243Z,30.95
2023-02-07T15:30:08.520Z,32.60
2023-02-07T15:32:46.380Z,43.15
2023-02-07T15:35:26.830Z,42.90
2023-02-07T15:38:14.351Z,43.38
2023-02-07T15:40:42.693Z,39.35
2023-02-07T15:43:35.369Z,46.13
2023-02-07T15:46:09.379Z,46.72
2023-02-07T15:48:54.767Z,46.50
2023-02-07T15:51:27.256Z,41.63
2023-02-07T15:54:01.506Z,39.38
2023-02-07T15:56:30.764Z,36.85
2023-02-07T15:59:03.446Z,42.47
2023-02-07T16:01:31.941Z,38.55
2023-02-07T16:04:02.960Z,40.72
2023-02-07T16:06:33.009Z,41.05
2023-02-07T16:09:07.917Z,39.47
2023-02-07T16:11:40.425Z,39.70
2023-02-07T16:14:25.537Z,38.08
2023-02-07T16:16:57.012Z,41.67
2023-02-07T16:19:31.464Z,35.55
2023-02-07T16:22:12.392Z,38.97
2023-02-07T16:24:44.393Z,36.80
2023-02-07T16:27:27.528Z,37.30
2023-02-07T16:29:59.029Z,33.63
2023-02-07T16:32:34.347Z,38.63
2023-02-07T16:35:02.034Z,36.13
2023-02-07T16:37:32.427Z,30.50
2023-02-07T16:40:02.262Z,32.60
2023-02-07T16:42:32.674Z,34.63
2023-02-07T16:45:00.540Z,33.13
2023-02-07T16:47:28.240Z,32.80
2023-02-07T16:49:55.938Z,32.22
2023-02-07T16:52:23.602Z,32.08
2023-02-07T16:54:51.274Z,35.33
2023-02-07T16:57:18.924Z,34.00
2023-02-07T16:59:46.611Z,35.13
2023-02-07T17:02:16.406Z,27.73
2023-02-07T17:04:44.170Z,36.00
2023-02-07T17:07:12.342Z,36.78
2023-02-07T17:09:40.057Z,41.45
2023-02-07T17:12:09.081Z,37.25
2023-02-07T17:14:38.241Z,36.92
2023-02-07T17:17:05.936Z,44.55
2023-02-07T17:19:33.709Z,33.65
2023-02-07T17:22:01.373Z,40.92
2023-02-07T17:24:29.212Z,38.50
2023-02-07T17:26:57.282Z,34.08
2023-02-07T17:29:25.164Z,35.42
2023-02-07T17:31:52.962Z,40.53
2023-02-07T17:34:20.679Z,32.30
2023-02-07T17:36:50.255Z,36.72
2023-02-07T17:39:20.271Z,36.03
2023-02-07T17:41:48.912Z,35.22
2023-02-07T17:44:21.228Z,38.58
2023-02-07T17:46:49.461Z,39.33
2023-02-07T17:49:17.832Z,39.90
2023-02-07T17:51:45.512Z,42.80
2023-02-07T17:54:13.276Z,43.78
2023-02-07T17:56:40.996Z,47.28
2023-02-07T17:59:22.800Z,41.33
2023-02-07T18:01:51.198Z,43.70
2023-02-07T18:04:18.927Z,39.90
2023-02-07T18:06:46.689Z,35.05
2023-02-07T18:09:18.868Z,35.45
2023-02-07T18:11:47.063Z,37.83
2023-02-07T18:14:14.712Z,38.70
2023-02-07T18:16:42.626Z,41.08
2023-02-07T18:19:15.935Z,41.35
2023-02-07T18:21:44.921Z,46.28
2023-02-07T18:24:13.136Z,43.33
2023-02-07T18:26:41.009Z,47.08
2023-02-07T18:29:09.799Z,40.65
2023-02-07T18:31:38.510Z,42.80
2023-02-07T18:34:06.781Z,37.78
2023-02-07T18:36:40.186Z,43.20
2023-02-07T18:39:11.932Z,37.95
2023-02-07T18:41:39.814Z,40.65
2023-02-07T18:44:07.763Z,46.97
2023-02-07T18:46:35.526Z,40.45
2023-02-07T18:49:03.468Z,42.92
2023-02-07T18:51:31.152Z,41.47
2023-02-07T18:53:58.764Z,38.83
2023-02-07T18:56:26.847Z,42.03
2023-02-07T18:58:56.830Z,42.75
2023-02-07T19:01:27.860Z,37.10
2023-02-07T19:03:58.083Z,41.63
2023-02-07T19:06:29.907Z,40.33
2023-02-07T19:08:59.214Z,42.65
2023-02-07T19:11:27.361Z,42.58
2023-02-07T19:13:55.159Z,43.05
2023-02-07T19:16:24.544Z,44.50
2023-02-07T19:18:52.400Z,41.53
2023-02-07T19:21:27.229Z,45.13
2023-02-07T19:23:57.209Z,38.08
2023-02-07T19:26:25.629Z,45.85
2023-02-07T19:28:53.483Z,44.60
2023-02-07T19:31:22.424Z,47.67
2023-02-07T19:33:50.723Z,45.55
2023-02-07T19:36:22.252Z,42.63
2023-02-07T19:38:53.730Z,39.35
2023-02-07T19:41:24.173Z,37.60
2023-02-07T19:43:52.691Z,47.80
2023-02-07T19:46:21.425Z,43.30
2023-02-07T19:48:49.858Z,44.90
2023-02-07T19:51:29.502Z,42.67
2023-02-07T19:53:57.564Z,46.88
2023-02-07T19:56:29.823Z,53.35
2023-02-07T19:58:58.002Z,49.00
2023-02-07T20:01:26.358Z,47.95
2023-02-07T20:03:55.749Z,40.22
2023-02-07T20:06:32.871Z,41.55
2023-02-07T20:09:04.088Z,45.70
2023-02-07T20:11:32.300Z,46.97
2023-02-07T20:14:05.888Z,47.72
2023-02-07T20:16:37.410Z,45.15
2023-02-07T20:19:07.691Z,50.45
2023-02-07T20:21:37.011Z,51.72
2023-02-07T20:24:05.751Z,48.50
2023-02-07T20:26:42.984Z,43.40
2023-02-07T20:29:14.859Z,41.15
2023-02-07T20:31:44.572Z,49.15
2023-02-07T20:34:15.661Z,46.40
2023-02-07T20:36:43.846Z,48.50
2023-02-07T20:39:18.171Z,48.95
2023-02-07T20:41:47.420Z,48.88
2023-02-07T20:44:22.892Z,39.28
2023-02-07T20:49:24.982Z,43.63
2023-02-07T20:51:55.095Z,48.97
2023-02-07T20:54:26.291Z,46.60
2023-02-07T20:56:55.244Z,41.10
2023-02-07T20:59:29.610Z,38.78
2023-02-07T21:01:57.808Z,40.30
2023-02-07T21:04:26.610Z,46.08
2023-02-07T21:06:54.894Z,42.80
2023-02-07T21:09:23.200Z,46.83
2023-02-07T21:11:53.282Z,43.72
2023-02-07T21:14:30.238Z,47.58
2023-02-07T21:17:06.496Z,44.08
2023-02-07T21:19:36.510Z,43.03
2023-02-07T21:22:05.111Z,42.20
2023-02-07T21:24:33.089Z,38.60
2023-02-07T21:27:03.549Z,44.28
2023-02-07T21:29:34.045Z,47.90
2023-02-07T21:32:02.576Z,41.95
2023-02-07T21:34:30.259Z,44.50
2023-02-07T21:36:58.140Z,40.72
2023-02-07T21:39:25.828Z,44.40
2023-02-07T21:41:53.717Z,46.58
2023-02-07T21:44:22.280Z,42.17
2023-02-07T21:46:51.032Z,47.28
2023-02-07T21:49:20.751Z,41.80
2023-02-07T21:51:49.994Z,42.97
2023-02-07T21:54:17.930Z,40.42
2023-02-07T21:56:46.056Z,42.75
2023-02-07T21:59:21.004Z,45.70
2023-02-07T22:01:49.024Z,38.67
2023-02-07T22:04:17.833Z,41.08
2023-02-07T22:06:47.989Z,39.58
2023-02-07T22:09:18.602Z,43.20
2023-02-07T22:11:46.428Z,36.65
2023-02-07T22:14:14.967Z,37.33
2023-02-07T22:16:42.957Z,35.05
2023-02-07T22:19:13.742Z,43.05
2023-02-07T22:21:41.531Z,41.40
2023-02-07T22:24:12.535Z,37.08
2023-02-07T22:26:40.364Z,43.58
2023-02-07T22:29:09.075Z,37.67
2023-02-07T22:31:39.482Z,37.00
2023-02-07T22:34:13.983Z,39.33
2023-02-07T22:36:44.492Z,34.58
2023-02-07T22:39:15.191Z,39.13
2023-02-07T22:41:43.132Z,40.30
2023-02-07T22:44:11.255Z,39.53
2023-02-07T22:46:39.213Z,40.80
2023-02-07T22:49:07.196Z,37.70
2023-02-07T22:51:37.503Z,46.05
2023-02-07T22:54:09.645Z,41.80
2023-02-07T22:56:38.348Z,44.88
2023-02-07T22:59:06.294Z,44.47
2023-02-07T23:01:38.961Z,39.88
2023-02-07T23:04:15.717Z,41.78
2023-02-07T23:06:47.838Z,44.63
2023-02-07T23:09:16.331Z,45.08
2023-02-07T23:11:44.211Z,49.15
2023-02-07T23:14:12.371Z,48.47
2023-02-07T23:16:40.882Z,50.17
2023-02-07T23:19:15.216Z,58.50
2023-02-07T23:21:44.147Z,43.42
2023-02-07T23:24:11.828Z,43.92
2023-02-07T23:26:39.540Z,45.83
2023-02-07T23:29:07.391Z,50.78
2023-02-07T23:31:35.204Z,45.40
2023-02-07T23:34:03.072Z,39.55
2023-02-07T23:36:30.861Z,41.58
2023-02-07T23:38:58.572Z,39.80
2023-02-07T23:41:26.288Z,42.25
2023-02-07T23:43:54.095Z,46.55
2023-02-07T23:46:21.763Z,43.38
2023-02-07T23:48:49.552Z,45.78
2023-02-07T23:51:17.143Z,45.78
2023-02-07T23:53:45.445Z,42.00
2023-02-07T23:56:20.612Z,36.28
2023-02-07T23:58:50.044Z,38.38
